createdAt,value
2018-03-08T00:00:41.138Z,6.10
2018-03-08T00:03:42.421Z,6.00
2018-03-08T00:06:43.645Z,6.10
2018-03-08T00:09:44.880Z,6.10
2018-03-08T00:12:46.832Z,6.10
2018-03-08T00:15:54.917Z,6.00
2018-03-08T00:18:56.140Z,6.20
2018-03-08T00:21:58.444Z,6.00
2018-03-08T00:24:59.700Z,6.00
2018-03-08T00:28:01.727Z,6.20
2018-03-08T00:31:02.939Z,6.20
2018-03-08T00:34:04.911Z,6.20
2018-03-08T00:37:06.908Z,6.20
2018-03-08T00:40:08.864Z,6.30
2018-03-08T00:43:10.111Z,6.30
2018-03-08T00:46:11.320Z,6.30
2018-03-08T00:49:12.598Z,6.30
2018-03-08T00:52:13.817Z,6.40
2018-03-08T00:55:15.033Z,6.40
2018-03-08T00:58:16.252Z,6.40
2018-03-08T01:01:18.221Z,6.30
2018-03-08T01:04:19.438Z,6.30
2018-03-08T01:07:20.660Z,6.30
2018-03-08T01:10:22.611Z,6.10
2018-03-08T01:13:23.834Z,6.10
2018-03-08T01:16:25.040Z,6.10
2018-03-08T01:19:26.269Z,6.20
2018-03-08T01:22:27.483Z,6.20
2018-03-08T01:25:29.432Z,6.30
2018-03-08T01:28:30.668Z,6.30
2018-03-08T01:31:31.904Z,6.30
2018-03-08T01:34:33.123Z,6.30
2018-03-08T01:37:34.380Z,6.20
2018-03-08T01:40:35.612Z,6.20
2018-03-08T01:43:36.833Z,6.20
2018-03-08T01:46:38.779Z,6.20
2018-03-08T01:49:40.036Z,6.10
2018-03-08T01:52:41.264Z,6.20
2018-03-08T01:55:42.483Z,6.20
2018-03-08T01:58:43.726Z,6.20
2018-03-08T02:01:45.677Z,6.00
2018-03-08T02:04:46.897Z,6.00
2018-03-08T02:07:48.103Z,6.00
2018-03-08T02:10:49.318Z,6.10
2018-03-08T02:13:50.552Z,6.10
2018-03-08T02:16:51.764Z,6.00
2018-03-08T02:19:53.724Z,6.10
2018-03-08T02:22:54.950Z,6.10
2018-03-08T02:25:56.172Z,6.10
2018-03-08T02:28:58.120Z,6.10
2018-03-08T02:31:59.344Z,6.20
2018-03-08T02:35:00.557Z,6.10
2018-03-08T02:38:01.805Z,6.10
2018-03-08T02:41:03.034Z,6.10
2018-03-08T02:44:04.240Z,6.20
2018-03-08T02:47:05.473Z,6.20
2018-03-08T02:50:06.708Z,6.10
2018-03-08T02:53:07.934Z,5.90
2018-03-08T02:56:09.912Z,6.00
2018-03-08T02:59:11.868Z,6.10
2018-03-08T03:02:13.110Z,6.10
2018-03-08T03:05:14.341Z,6.20
2018-03-08T03:08:15.564Z,6.20
2018-03-08T03:11:16.897Z,6.00
2018-03-08T03:14:18.139Z,6.00
2018-03-08T03:17:19.376Z,6.00
2018-03-08T03:20:21.336Z,6.00
2018-03-08T03:23:22.556Z,6.00
2018-03-08T03:26:23.776Z,6.10
2018-03-08T03:29:25.735Z,6.20
2018-03-08T03:32:26.952Z,6.10
2018-03-08T03:35:28.163Z,6.10
2018-03-08T03:38:29.412Z,6.10
2018-03-08T03:41:30.648Z,6.00
2018-03-08T03:44:31.847Z,6.00
2018-03-08T03:47:33.067Z,6.00
2018-03-08T03:50:34.261Z,5.90
2018-03-08T03:53:36.213Z,6.00
2018-03-08T03:56:37.429Z,6.00
2018-03-08T03:59:39.395Z,6.10
2018-03-08T04:02:40.628Z,6.10
2018-03-08T04:05:41.836Z,6.00
2018-03-08T04:08:43.800Z,6.00
2018-03-08T04:11:44.984Z,6.00
2018-03-08T04:14:46.944Z,5.90
2018-03-08T04:17:48.147Z,5.90
2018-03-08T04:20:49.341Z,6.00
2018-03-08T04:23:50.552Z,6.00
2018-03-08T04:26:52.476Z,6.20
2018-03-08T04:29:53.704Z,6.20
2018-03-08T04:32:54.907Z,6.10
2018-03-08T04:35:56.121Z,6.10
2018-03-08T04:38:58.052Z,6.00
2018-03-08T04:41:59.253Z,6.00
2018-03-08T04:45:01.202Z,5.80
2018-03-08T04:48:02.427Z,5.80
2018-03-08T04:51:03.652Z,5.70
2018-03-08T04:54:04.841Z,5.70
2018-03-08T04:57:06.047Z,5.60
2018-03-08T05:00:07.268Z,5.60
2018-03-08T05:03:08.476Z,5.50
2018-03-08T05:06:09.682Z,5.40
2018-03-08T05:09:10.910Z,5.50
2018-03-08T05:12:12.128Z,5.50
2018-03-08T05:15:13.355Z,5.40
2018-03-08T05:18:15.286Z,5.40
2018-03-08T05:21:16.481Z,5.40
2018-03-08T05:24:17.692Z,5.40
2018-03-08T05:27:18.889Z,5.20
2018-03-08T05:30:20.096Z,5.20
2018-03-08T05:33:21.272Z,5.20
2018-03-08T05:36:22.489Z,5.20
2018-03-08T05:39:23.701Z,5.30
2018-03-08T05:42:24.905Z,5.30
2018-03-08T05:45:26.106Z,5.40
2018-03-08T05:48:27.311Z,5.40
2018-03-08T05:51:28.520Z,5.40
2018-03-08T05:54:30.524Z,5.40
2018-03-08T05:57:31.764Z,5.40
2018-03-08T06:00:33.733Z,5.40
2018-03-08T06:03:35.681Z,5.30
2018-03-08T06:06:36.904Z,5.20
2018-03-08T06:09:38.108Z,5.20
2018-03-08T06:12:39.325Z,5.30
2018-03-08T06:15:40.551Z,5.20
2018-03-08T06:18:41.768Z,5.00
2018-03-08T06:21:42.961Z,5.20
2018-03-08T06:24:44.153Z,5.30
2018-03-08T06:27:46.097Z,5.30
2018-03-08T06:30:47.318Z,5.20
2018-03-08T06:33:48.554Z,5.30
2018-03-08T06:36:50.671Z,5.50
2018-03-08T06:39:51.861Z,5.50
2018-03-08T06:42:53.091Z,5.40
2018-03-08T06:45:54.286Z,5.40
2018-03-08T06:48:55.505Z,5.40
2018-03-08T06:51:56.706Z,5.40
2018-03-08T06:54:57.956Z,5.40
2018-03-08T06:57:59.188Z,5.50
2018-03-08T07:01:00.413Z,5.30
2018-03-08T07:04:01.635Z,5.30
2018-03-08T07:07:02.900Z,5.20
2018-03-08T07:10:04.133Z,5.20
2018-03-08T07:13:06.097Z,5.20
2018-03-08T07:16:08.065Z,5.20
2018-03-08T07:19:09.281Z,5.20
2018-03-08T07:22:10.504Z,5.30
2018-03-08T07:25:12.517Z,5.30
2018-03-08T07:28:13.745Z,5.30
2018-03-08T07:31:22.755Z,5.20
2018-03-08T07:34:23.974Z,5.20
2018-03-08T07:37:25.216Z,5.30
2018-03-08T07:40:34.092Z,5.20
2018-03-08T07:43:35.326Z,5.20
2018-03-08T07:46:37.357Z,5.40
2018-03-08T07:49:38.558Z,5.40
2018-03-08T07:52:39.765Z,5.40
2018-03-08T07:55:40.985Z,5.40
2018-03-08T07:58:42.209Z,5.50
2018-03-08T08:01:43.452Z,5.50
2018-03-08T08:05:03.359Z,5.50
2018-03-08T08:08:23.184Z,5.60
2018-03-08T08:11:24.426Z,5.70
2018-03-08T08:14:25.713Z,5.70
2018-03-08T08:17:26.905Z,5.90
2018-03-08T08:20:28.918Z,6.10
2018-03-08T08:23:30.132Z,6.10
2018-03-08T08:26:31.369Z,6.40
2018-03-08T08:29:32.561Z,6.20
2018-03-08T08:32:33.758Z,6.30
2018-03-08T08:35:35.048Z,6.30
2018-03-08T08:38:36.237Z,6.30
2018-03-08T08:41:37.424Z,6.40
2018-03-08T08:44:39.362Z,6.30
2018-03-08T08:47:40.597Z,6.30
2018-03-08T08:50:41.840Z,6.40
2018-03-08T08:53:43.057Z,6.40
2018-03-08T08:56:44.266Z,6.60
2018-03-08T08:59:45.474Z,6.70
2018-03-08T09:02:46.682Z,6.70
2018-03-08T09:05:48.609Z,6.70
2018-03-08T09:08:49.826Z,6.70
2018-03-08T09:11:51.789Z,6.80
2018-03-08T09:14:53.739Z,6.90
2018-03-08T09:17:54.959Z,6.90
2018-03-08T09:20:56.153Z,7.00
2018-03-08T09:23:57.366Z,7.00
2018-03-08T09:26:59.313Z,7.10
2018-03-08T09:30:02.018Z,7.20
2018-03-08T09:33:03.252Z,7.20
2018-03-08T09:36:04.512Z,7.10
2018-03-08T09:39:05.729Z,7.20
2018-03-08T09:42:07.661Z,7.20
2018-03-08T09:45:08.862Z,7.20
2018-03-08T09:48:10.832Z,7.20
2018-03-08T09:51:12.022Z,7.20
2018-03-08T09:54:14.009Z,7.30
2018-03-08T09:57:15.188Z,7.30
2018-03-08T10:00:16.411Z,7.20
2018-03-08T10:03:18.350Z,7.20
2018-03-08T10:06:19.536Z,7.10
2018-03-08T10:09:27.810Z,7.20
2018-03-08T10:12:29.708Z,7.30
2018-03-08T10:15:30.933Z,7.40
2018-03-08T10:18:32.884Z,7.40
2018-03-08T10:21:45.060Z,7.40
2018-03-08T10:24:35.325Z,7.60
2018-03-08T10:27:37.257Z,7.60
2018-03-08T10:30:38.467Z,7.60
2018-03-08T10:33:40.397Z,7.70
2018-03-08T10:36:41.616Z,7.70
2018-03-08T10:39:43.585Z,8.00
2018-03-08T10:42:45.522Z,7.90
2018-03-08T10:45:46.760Z,7.90
2018-03-08T10:51:49.174Z,7.80
2018-03-08T10:54:50.369Z,7.80
2018-03-08T10:57:51.553Z,7.70
2018-03-08T11:00:54.750Z,7.70
2018-03-08T11:03:55.955Z,7.70
2018-03-08T11:06:57.909Z,7.90
2018-03-08T11:09:59.133Z,7.90
2018-03-08T11:13:01.099Z,8.20
2018-03-08T11:16:02.321Z,8.20
2018-03-08T11:19:03.531Z,8.20
2018-03-08T11:22:04.725Z,8.30
2018-03-08T11:25:05.915Z,8.50
2018-03-08T11:28:07.892Z,8.50
2018-03-08T11:31:09.857Z,8.40
2018-03-08T11:34:11.033Z,8.40
2018-03-08T11:37:12.969Z,8.30
2018-03-08T11:40:14.185Z,8.30
2018-03-08T11:43:16.157Z,8.20
2018-03-08T11:46:18.105Z,8.30
2018-03-08T11:49:19.304Z,8.20
2018-03-08T11:52:21.242Z,8.30
2018-03-08T11:55:22.826Z,8.30
2018-03-08T11:58:24.881Z,8.30
2018-03-08T12:01:26.368Z,8.30
2018-03-08T12:04:27.580Z,8.40
2018-03-08T12:07:29.052Z,8.40
2018-03-08T12:10:30.253Z,8.40
2018-03-08T12:13:31.737Z,8.40
2018-03-08T12:16:33.737Z,8.50
2018-03-08T12:19:36.105Z,8.40
2018-03-08T12:22:37.515Z,8.40
2018-03-08T12:25:40.897Z,8.40
2018-03-08T12:28:42.098Z,8.50
2018-03-08T12:31:43.292Z,8.60
2018-03-08T12:34:44.504Z,8.60
2018-03-08T12:37:46.465Z,8.70
2018-03-08T12:40:47.693Z,8.70
2018-03-08T12:43:48.885Z,8.70
2018-03-08T12:46:50.069Z,8.60
2018-03-08T12:49:51.288Z,8.60
2018-03-08T12:52:52.481Z,8.60
2018-03-08T12:55:54.433Z,8.40
2018-03-08T12:58:55.641Z,8.40
2018-03-08T13:01:56.843Z,8.40
2018-03-08T13:04:58.061Z,8.30
2018-03-08T13:07:59.263Z,8.10
2018-03-08T13:11:00.469Z,8.00
2018-03-08T13:14:02.436Z,7.90
2018-03-08T13:17:03.640Z,7.80
2018-03-08T13:20:04.849Z,7.80
2018-03-08T13:23:06.045Z,7.70
2018-03-08T13:26:07.989Z,7.70
2018-03-08T13:29:09.215Z,7.70
2018-03-08T13:32:10.460Z,7.60
2018-03-08T13:35:11.692Z,7.60
2018-03-08T13:38:12.896Z,7.60
2018-03-08T13:41:14.102Z,7.70
2018-03-08T13:44:15.313Z,7.70
2018-03-08T13:47:16.527Z,7.70
2018-03-08T13:50:17.737Z,7.70
2018-03-08T13:53:18.929Z,7.60
2018-03-08T13:56:20.144Z,7.60
2018-03-08T13:59:22.109Z,7.50
2018-03-08T14:02:23.325Z,7.50
2018-03-08T14:05:24.539Z,7.50
2018-03-08T14:08:26.492Z,7.50
2018-03-08T14:11:27.724Z,7.50
2018-03-08T14:14:28.912Z,7.50
2018-03-08T14:17:30.234Z,7.50
2018-03-08T14:20:31.462Z,7.40
2018-03-08T14:23:32.676Z,7.40
2018-03-08T14:26:33.931Z,7.40
2018-03-08T14:29:35.148Z,7.30
2018-03-08T14:32:36.372Z,7.20
2018-03-08T14:35:37.557Z,7.30
2018-03-08T14:38:38.760Z,7.50
2018-03-08T14:41:39.967Z,7.50
2018-03-08T14:44:41.196Z,7.40
2018-03-08T14:47:42.428Z,7.30
2018-03-08T14:50:43.612Z,7.30
2018-03-08T14:53:44.810Z,7.20
2018-03-08T14:56:46.014Z,7.20
2018-03-08T14:59:48.013Z,7.30
2018-03-08T15:02:49.235Z,7.30
2018-03-08T15:05:50.429Z,7.20
2018-03-08T15:08:52.405Z,7.60
2018-03-08T15:11:54.353Z,7.40
2018-03-08T15:14:55.656Z,7.40
2018-03-08T15:17:57.621Z,7.40
2018-03-08T15:20:59.576Z,7.30
2018-03-08T15:24:00.779Z,7.30
2018-03-08T15:27:02.745Z,7.40
2018-03-08T15:30:04.732Z,7.40
2018-03-08T15:33:06.693Z,7.30
2018-03-08T15:36:07.878Z,7.30
2018-03-08T15:39:09.848Z,7.40
2018-03-08T15:42:11.821Z,7.30
2018-03-08T15:45:13.017Z,7.30
2018-03-08T15:48:14.229Z,7.20
2018-03-08T15:51:15.429Z,7.20
2018-03-08T15:54:16.634Z,7.20
2018-03-08T15:57:17.840Z,7.30
2018-03-08T16:00:19.781Z,7.30
2018-03-08T16:03:21.716Z,7.20
2018-03-08T16:06:41.309Z,7.20
2018-03-08T16:13:28.261Z,7.00
2018-03-08T16:16:30.216Z,6.90
2018-03-08T16:19:31.444Z,6.90
2018-03-08T16:22:32.641Z,6.90
2018-03-08T16:25:33.854Z,6.90
2018-03-08T16:28:35.049Z,6.90
2018-03-08T16:31:36.271Z,6.80
2018-03-08T16:34:37.462Z,6.90
2018-03-08T16:37:38.684Z,7.00
2018-03-08T16:40:40.652Z,6.90
2018-03-08T16:43:42.593Z,6.90
2018-03-08T16:46:43.812Z,6.90
2018-03-08T16:49:45.012Z,6.80
2018-03-08T16:52:46.219Z,6.70
2018-03-08T16:55:48.172Z,6.70
2018-03-08T16:58:49.376Z,6.70
2018-03-08T17:01:50.584Z,6.70
2018-03-08T17:04:51.804Z,6.80
2018-03-08T17:07:53.012Z,6.80
2018-03-08T17:10:54.345Z,6.80
2018-03-08T17:13:55.595Z,6.70
2018-03-08T17:16:56.855Z,6.80
2018-03-08T17:19:58.047Z,6.80
2018-03-08T17:22:59.296Z,6.80
2018-03-08T17:26:00.522Z,6.60
2018-03-08T17:29:02.478Z,6.60
2018-03-08T17:32:03.700Z,6.60
2018-03-08T17:35:04.922Z,6.50
2018-03-08T17:38:06.147Z,6.80
2018-03-08T17:41:07.364Z,6.70
2018-03-08T17:44:09.341Z,6.60
2018-03-08T17:47:11.339Z,6.60
2018-03-08T17:50:12.550Z,6.50
2018-03-08T17:53:13.769Z,6.50
2018-03-08T17:56:14.997Z,6.40
2018-03-08T17:59:16.970Z,6.30
2018-03-08T18:02:18.213Z,6.30
2018-03-08T18:05:19.457Z,6.30
2018-03-08T18:08:20.688Z,6.30
2018-03-08T18:11:21.912Z,6.30
2018-03-08T18:14:23.156Z,6.20
2018-03-08T18:17:25.144Z,6.10
2018-03-08T18:20:26.389Z,6.10
2018-03-08T18:23:27.630Z,6.10
2018-03-08T18:26:28.846Z,6.10
2018-03-08T18:29:30.137Z,6.10
2018-03-08T18:32:31.395Z,6.10
2018-03-08T18:35:33.386Z,6.10
2018-03-08T18:38:34.617Z,6.10
2018-03-08T18:41:42.769Z,6.20
2018-03-08T18:44:44.723Z,6.10
2018-03-08T18:47:45.978Z,6.10
2018-03-08T18:50:47.237Z,6.20
2018-03-08T18:53:48.488Z,6.30
2018-03-08T18:56:49.731Z,6.30
2018-03-08T18:59:51.526Z,6.30
2018-03-08T19:02:52.788Z,6.20
2018-03-08T19:05:54.784Z,6.20
2018-03-08T19:08:56.948Z,6.30
2018-03-08T19:11:58.352Z,6.30
2018-03-08T19:14:59.812Z,6.30
2018-03-08T19:18:01.134Z,6.20
2018-03-08T19:21:02.403Z,6.20
2018-03-08T19:24:03.665Z,5.80
2018-03-08T19:27:04.941Z,5.50
2018-03-08T19:30:06.527Z,5.20
2018-03-08T19:33:07.760Z,5.10
2018-03-08T19:36:09.006Z,5.20
2018-03-08T19:39:10.230Z,5.10
2018-03-08T19:42:11.562Z,5.10
2018-03-08T19:45:12.836Z,5.10
2018-03-08T19:48:14.837Z,5.20
2018-03-08T19:51:16.544Z,5.20
2018-03-08T19:54:17.971Z,5.20
2018-03-08T19:57:20.414Z,5.20
2018-03-08T20:00:21.685Z,5.20
2018-03-08T20:03:22.928Z,5.30
2018-03-08T20:06:24.245Z,5.20
2018-03-08T20:09:25.704Z,5.30
2018-03-08T20:12:42.072Z,5.30
2018-03-08T20:15:43.340Z,5.20
2018-03-08T20:18:44.770Z,5.30
2018-03-08T20:21:46.030Z,5.30
2018-03-08T20:24:47.259Z,5.30
2018-03-08T20:27:48.635Z,5.30
2018-03-08T20:30:50.269Z,5.40
2018-03-08T20:33:51.586Z,5.50
2018-03-08T20:36:52.816Z,5.50
2018-03-08T20:39:54.120Z,5.50
2018-03-08T20:42:55.355Z,5.50
2018-03-08T20:45:56.851Z,5.50
2018-03-08T20:48:58.069Z,5.50
2018-03-08T20:51:59.530Z,5.40
2018-03-08T20:55:00.804Z,5.50
2018-03-08T20:58:02.040Z,5.60
2018-03-08T21:01:04.381Z,5.50
2018-03-08T21:04:05.642Z,5.50
2018-03-08T21:07:07.268Z,5.50
2018-03-08T21:10:09.040Z,5.50
2018-03-08T21:13:11.478Z,5.50
2018-03-08T21:16:14.264Z,5.50
2018-03-08T21:19:15.537Z,5.50
2018-03-08T21:22:17.114Z,5.50
2018-03-08T21:25:18.353Z,5.50
2018-03-08T21:28:19.580Z,5.60
2018-03-08T21:31:21.744Z,5.50
2018-03-08T21:34:23.110Z,5.50
2018-03-08T21:37:24.367Z,5.50
2018-03-08T21:40:25.730Z,5.60
2018-03-08T21:43:26.975Z,5.60
2018-03-08T21:46:28.215Z,5.60
2018-03-08T21:49:29.497Z,5.70
2018-03-08T21:52:30.749Z,5.60
2018-03-08T21:55:32.027Z,5.60
2018-03-08T21:58:33.298Z,5.50
2018-03-08T22:01:34.539Z,5.40
2018-03-08T22:04:35.899Z,5.40
2018-03-08T22:07:37.456Z,5.40
2018-03-08T22:10:38.722Z,5.40
2018-03-08T22:13:39.965Z,5.20
2018-03-08T22:16:41.915Z,5.30
2018-03-08T22:19:43.272Z,5.30
2018-03-08T22:22:44.517Z,5.40
2018-03-08T22:25:45.726Z,5.40
2018-03-08T22:28:48.137Z,5.40
2018-03-08T22:31:49.411Z,5.40
2018-03-08T22:34:50.632Z,5.30
2018-03-08T22:37:51.875Z,5.40
2018-03-08T22:40:53.124Z,5.40
2018-03-08T22:43:54.376Z,5.30
2018-03-08T22:46:55.604Z,5.30
2018-03-08T22:49:57.609Z,5.20
2018-03-08T22:52:58.852Z,5.20
2018-03-08T22:56:00.516Z,5.30
2018-03-08T22:59:02.554Z,5.10
2018-03-08T23:02:12.988Z,5.10
2018-03-08T23:05:14.949Z,5.10
2018-03-08T23:08:16.920Z,5.20
2018-03-08T23:11:18.156Z,5.20
2018-03-08T23:14:19.385Z,5.20
2018-03-08T23:17:20.635Z,5.20
2018-03-08T23:20:21.865Z,5.10
2018-03-08T23:23:23.097Z,5.20
2018-03-08T23:26:24.354Z,5.20
2018-03-08T23:29:25.569Z,5.20
2018-03-08T23:32:27.554Z,5.10
2018-03-08T23:35:29.521Z,5.10
2018-03-08T23:38:30.742Z,5.10
2018-03-08T23:41:31.979Z,5.10
2018-03-08T23:44:33.219Z,5.00
2018-03-08T23:47:35.190Z,5.00
2018-03-08T23:50:37.181Z,5.00
2018-03-08T23:53:39.152Z,4.90
2018-03-08T23:56:40.382Z,4.90
2018-03-08T23:59:41.603Z,4.90
